Tiros, Brazil
Current Conditions -  °F | °C
As of 6:00 AM on Thursday 23 Oct 2014 (Local Time) from SBUR Reporting Station
Clear Clear  
Wind Chill: 70°   Ceiling: Unl
Heat Index: 70°   Visibility: 6mi
Dew Point: 61°   Wind: 10mph
Humidity: 73%   Direction: 90°E
Pressure: 30.09"   Gusts: NA
Location:  19°S, 45.96°W
Report Text: SBUR 230800Z 09009KT CAVOK 21/16 Q1019
Loading
Personal Weather Stations






























Interactive Weather Map New forecast layout! Learn more

10-Day Weather Forecast

Advertisements
Track Severe Weather on mobile